createdAt,value
2022-10-29T00:04:19.468Z,20.33
2022-10-29T00:14:20.970Z,20.32
2022-10-29T00:24:22.505Z,20.27
2022-10-29T00:34:23.893Z,20.27
2022-10-29T00:44:30.061Z,20.26
2022-10-29T00:54:32.450Z,20.25
2022-10-29T01:04:34.085Z,20.22
2022-10-29T01:15:00.978Z,20.17
2022-10-29T01:25:21.129Z,20.13
2022-10-29T01:35:34.337Z,20.09
2022-10-29T01:45:38.917Z,20.05
2022-10-29T01:55:40.411Z,20.04
2022-10-29T02:05:51.390Z,20.02
2022-10-29T02:15:53.049Z,19.95
2022-10-29T02:25:54.582Z,19.92
2022-10-29T02:35:56.076Z,19.90
2022-10-29T02:46:11.001Z,19.86
2022-10-29T02:56:12.930Z,19.83
2022-10-29T03:06:18.298Z,19.77
2022-10-29T03:16:19.680Z,19.74
2022-10-29T03:26:21.099Z,19.67
2022-10-29T03:36:22.558Z,19.56
2022-10-29T03:46:23.986Z,19.50
2022-10-29T03:56:25.369Z,19.37
2022-10-29T04:06:26.868Z,19.40
2022-10-29T04:16:28.239Z,19.36
2022-10-29T04:36:52.273Z,19.39
2022-10-29T04:46:53.654Z,19.41
2022-10-29T04:56:55.086Z,19.41
2022-10-29T05:06:56.583Z,19.41
2022-10-29T05:16:58.111Z,19.43
2022-10-29T05:26:59.611Z,19.40
2022-10-29T05:37:00.995Z,19.41
2022-10-29T05:47:02.451Z,19.42
2022-10-29T05:57:03.857Z,19.43
2022-10-29T06:07:05.378Z,19.39
2022-10-29T06:17:06.772Z,19.39
2022-10-29T06:27:08.260Z,19.34
2022-10-29T06:37:09.733Z,19.35
2022-10-29T06:47:11.164Z,19.40
2022-10-29T06:57:12.536Z,19.48
2022-10-29T07:07:14.136Z,19.60
2022-10-29T07:17:15.556Z,19.67
2022-10-29T07:27:17.080Z,19.87
2022-10-29T07:37:18.476Z,20.04
2022-10-29T07:47:19.864Z,20.12
2022-10-29T07:57:22.306Z,20.32
2022-10-29T08:07:23.706Z,20.53
2022-10-29T08:17:25.091Z,20.59
2022-10-29T08:27:26.547Z,20.64
2022-10-29T08:37:27.958Z,20.65
2022-10-29T08:47:29.324Z,20.99
2022-10-29T08:57:32.024Z,21.06
2022-10-29T09:08:05.570Z,21.84
2022-10-29T09:18:27.935Z,22.07
2022-10-29T09:28:32.684Z,21.97
2022-10-29T09:38:35.765Z,21.91
2022-10-29T09:48:47.215Z,22.26
2022-10-29T09:58:52.408Z,22.22
2022-10-29T10:08:59.385Z,22.19
2022-10-29T10:19:00.826Z,22.25
2022-10-29T10:29:21.116Z,22.30
2022-10-29T10:39:36.535Z,22.24
2022-10-29T10:49:38.022Z,22.16
2022-10-29T10:59:45.274Z,22.10
2022-10-29T11:09:48.069Z,22.14
2022-10-29T11:19:49.649Z,22.10
2022-10-29T11:29:56.175Z,22.12
2022-10-29T11:40:00.005Z,22.15
2022-10-29T11:50:05.554Z,22.14
2022-10-29T12:00:13.907Z,22.12
2022-10-29T12:10:27.615Z,22.14
2022-10-29T12:20:50.855Z,22.18
2022-10-29T12:30:58.182Z,22.23
2022-10-29T12:41:05.487Z,22.24
2022-10-29T12:51:12.913Z,22.29
2022-10-29T13:01:38.236Z,22.29
2022-10-29T13:11:53.010Z,22.28
2022-10-29T13:22:24.711Z,22.19
2022-10-29T13:32:33.563Z,22.17
2022-10-29T13:42:34.936Z,22.15
2022-10-29T13:52:37.258Z,22.16
2022-10-29T14:02:53.326Z,22.14
2022-10-29T14:12:57.309Z,22.10
2022-10-29T14:23:01.288Z,22.07
2022-10-29T14:33:02.744Z,22.05
2022-10-29T14:43:05.163Z,22.03
2022-10-29T14:53:07.728Z,21.99
2022-10-29T15:03:14.967Z,21.96
2022-10-29T15:13:29.177Z,21.92
2022-10-29T15:23:41.180Z,21.82
2022-10-29T15:33:42.740Z,21.74
2022-10-29T15:44:02.255Z,21.64
2022-10-29T15:54:04.200Z,21.60
2022-10-29T16:04:05.601Z,21.51
2022-10-29T16:14:08.960Z,21.39
2022-10-29T16:24:14.224Z,21.29
2022-10-29T16:34:18.239Z,21.21
2022-10-29T16:44:22.153Z,21.16
2022-10-29T16:54:23.715Z,21.13
2022-10-29T17:04:25.131Z,21.08
2022-10-29T17:14:26.599Z,21.05
2022-10-29T17:24:28.041Z,21.01
2022-10-29T17:34:29.407Z,20.95
2022-10-29T17:44:31.952Z,20.88
2022-10-29T17:54:35.177Z,20.84
2022-10-29T18:04:36.893Z,20.83
2022-10-29T18:14:38.279Z,20.78
2022-10-29T18:24:39.669Z,20.77
2022-10-29T18:34:41.060Z,20.75
2022-10-29T18:44:42.432Z,20.70
2022-10-29T18:54:43.905Z,20.68
2022-10-29T19:04:45.383Z,20.66
2022-10-29T19:14:46.768Z,20.67
2022-10-29T19:24:48.246Z,20.65
2022-10-29T19:34:49.674Z,20.62
2022-10-29T19:44:55.307Z,20.62
2022-10-29T19:54:57.862Z,20.59
2022-10-29T20:04:59.271Z,20.59
2022-10-29T20:15:01.798Z,20.57
2022-10-29T20:25:03.394Z,20.55
2022-10-29T20:35:05.126Z,20.53
2022-10-29T20:45:06.948Z,20.52
2022-10-29T20:55:08.748Z,20.49
2022-10-29T21:05:10.130Z,20.47
2022-10-29T21:15:11.518Z,20.42
2022-10-29T21:25:13.084Z,20.41
2022-10-29T21:35:14.493Z,20.41
2022-10-29T21:45:15.885Z,20.41
2022-10-29T21:55:17.295Z,20.40
2022-10-29T22:05:18.680Z,20.40
2022-10-29T22:15:20.117Z,20.40
2022-10-29T22:25:21.500Z,20.41
2022-10-29T22:35:22.978Z,20.39
2022-10-29T22:45:24.435Z,20.41
2022-10-29T22:55:25.949Z,20.39
2022-10-29T23:05:27.383Z,20.36
2022-10-29T23:15:28.786Z,20.34
2022-10-29T23:25:30.150Z,20.33
2022-10-29T23:35:34.463Z,20.32
2022-10-29T23:45:35.939Z,20.29
2022-10-29T23:55:37.345Z,20.28
